Página principal
METAR-TAF:

METAR-TAF

Aeroportos :

Pyongyang, Coreia do Norte

latitude: 39-02N, longitude: 125-47E, altura: 36 m

METAR: em falta

Hora: 22:58 (14:28 UTC)

Previsão

O boletim foi feito há 9 horas e 48 minutos, às 04:40 UTC
Previsão válida de 23 às 06 UTC a 24 às 06 UTC
Vento 10 kt de sudoeste
Visibilidade 10 km ou mais
sem nuvens abaixo de 1500 metros e sem cumulonimbus
Tornando-se
de 23 às 09 UTC a 23 às 11 UTC
Vento 8 kt de su-sudoeste
Temporariamente
de 23 às 18 UTC a 23 às 24 UTC
Visibilidade: 0800 m
nevoeiro

TAF: ZKPY 230440Z 2306/2406 23005MPS CAVOK BECMG 2309/2311 21004MPS TEMPO 2318/2324 0800 FG

Observações e previsões do tempo de mais de 4000 aeroportos (mensagens METAR e TAF).

As estações disponíveis são os pontos amarelos e vermelhos sobre o mapa.

Mova o rato sobre o mapa para ver o nome da estação.

Depois clique no ponto para visualizar as observações e previsões meteorológicas.

Para alterar o mapa : clique nos botões verdes com uma cruz preta para aumentar o zoom; no botão verde com uma pitada de zoom; ou nas setas verdes para mapas adjacentes.


METAR-TAF: